createdAt,value
2022-12-01T00:01:53.743Z,-0.04
2022-12-01T00:04:25.964Z,-0.10
2022-12-01T00:06:54.084Z,-0.13
2022-12-01T01:50:49.878Z,0.56
2022-12-01T01:53:45.044Z,0.51
2022-12-01T01:56:13.379Z,0.46
2022-12-01T01:58:42.654Z,0.40
2022-12-01T02:01:11.060Z,0.37
2022-12-01T02:03:42.341Z,0.29
2022-12-01T02:06:12.172Z,0.22
2022-12-01T02:08:43.797Z,0.17
2022-12-01T02:15:56.303Z,0.01
2022-12-01T02:24:49.714Z,-0.26
2022-12-01T02:27:36.599Z,-0.39
2022-12-01T02:48:03.095Z,-0.97
2022-12-01T02:50:35.256Z,-1.04
2022-12-01T02:53:04.580Z,-1.08
2022-12-01T02:55:33.820Z,-1.13
2022-12-01T02:58:02.121Z,-1.13
2022-12-01T03:06:39.603Z,-1.05
2022-12-01T03:09:31.095Z,-1.09
2022-12-01T03:12:08.423Z,-1.12
2022-12-01T03:14:49.360Z,-1.14
2022-12-01T03:32:44.179Z,-1.32
2022-12-01T03:35:19.766Z,-1.30
2022-12-01T03:37:59.502Z,-1.28
2022-12-01T03:40:31.186Z,-1.29
2022-12-01T03:43:03.731Z,-1.30
2022-12-01T03:45:41.061Z,-1.31
2022-12-01T03:48:09.105Z,-1.30
2022-12-01T03:51:01.126Z,-1.29
2022-12-01T03:53:35.593Z,-1.27
2022-12-01T03:56:07.318Z,-1.23
2022-12-01T03:58:40.891Z,-1.20
2022-12-01T04:01:09.575Z,-1.15
2022-12-01T04:04:08.098Z,-1.11
2022-12-01T04:22:13.530Z,-0.84
2022-12-01T04:24:42.137Z,-0.83
2022-12-01T04:27:10.205Z,-0.84
2022-12-01T04:29:38.225Z,-0.83
2022-12-01T04:32:06.551Z,-0.80
2022-12-01T04:34:34.696Z,-0.79
2022-12-01T04:37:03.774Z,-0.81
2022-12-01T04:39:31.983Z,-0.87
2022-12-01T04:42:00.129Z,-0.90
2022-12-01T04:44:34.282Z,-0.89
2022-12-01T04:47:04.259Z,-0.93
2022-12-01T04:49:33.451Z,-0.97
2022-12-01T04:52:01.551Z,-0.97
2022-12-01T04:54:29.775Z,-0.97
2022-12-01T04:56:57.757Z,-0.96
2022-12-01T04:59:25.831Z,-0.94
2022-12-01T05:01:53.954Z,-0.98
2022-12-01T05:04:22.208Z,-1.01
2022-12-01T05:06:50.399Z,-1.00
2022-12-01T05:09:21.102Z,-1.03
2022-12-01T05:11:49.431Z,-1.06
2022-12-01T05:14:17.498Z,-1.11
2022-12-01T05:16:45.707Z,-1.13
2022-12-01T05:23:21.054Z,-1.26
2022-12-01T05:25:48.899Z,-1.33
2022-12-01T05:28:16.880Z,-1.38
2022-12-01T05:30:44.927Z,-1.44
2022-12-01T05:33:13.019Z,-1.49
2022-12-01T05:35:41.295Z,-1.54
2022-12-01T05:38:09.300Z,-1.58
2022-12-01T05:40:38.331Z,-1.62
2022-12-01T05:43:07.605Z,-1.67
2022-12-01T05:45:38.915Z,-1.73
2022-12-01T05:48:06.929Z,-1.79
2022-12-01T05:50:38.644Z,-1.84
2022-12-01T05:53:08.018Z,-1.89
2022-12-01T05:55:36.061Z,-1.94
2022-12-01T05:58:04.090Z,-1.96
2022-12-01T06:00:31.998Z,-2.00
2022-12-01T06:02:59.995Z,-2.03
2022-12-01T06:05:28.711Z,-2.06
2022-12-01T06:07:56.743Z,-2.08
2022-12-01T06:10:24.657Z,-2.10
2022-12-01T06:12:52.678Z,-2.12
2022-12-01T06:15:20.667Z,-2.12
2022-12-01T06:17:48.663Z,-2.12
2022-12-01T06:20:16.784Z,-2.12
2022-12-01T06:22:44.803Z,-2.10
2022-12-01T06:25:12.821Z,-2.09
2022-12-01T06:27:40.838Z,-2.07
2022-12-01T06:30:09.469Z,-2.06
2022-12-01T06:32:38.217Z,-2.03
2022-12-01T06:35:06.667Z,-2.00
2022-12-01T06:37:34.636Z,-1.97
2022-12-01T06:40:02.546Z,-1.91
2022-12-01T06:42:32.243Z,-1.86
2022-12-01T06:45:00.206Z,-1.78
2022-12-01T06:47:28.178Z,-1.69
2022-12-01T06:49:56.139Z,-1.59
2022-12-01T06:52:24.030Z,-1.52
2022-12-01T06:54:52.023Z,-1.44
2022-12-01T06:57:20.428Z,-1.34
2022-12-01T06:59:48.959Z,-1.24
2022-12-01T07:02:17.617Z,-1.13
2022-12-01T07:04:45.646Z,-1.05
2022-12-01T07:07:13.709Z,-0.94
2022-12-01T07:09:41.628Z,-0.84
2022-12-01T07:12:09.671Z,-0.73
2022-12-01T07:14:37.940Z,-0.62
2022-12-01T07:17:05.873Z,-0.51
2022-12-01T07:19:33.927Z,-0.38
2022-12-01T07:22:02.302Z,-0.25
2022-12-01T07:24:31.174Z,-0.11
2022-12-01T07:26:59.182Z,0.04
2022-12-01T07:29:27.099Z,0.14
2022-12-01T07:31:55.643Z,0.28
2022-12-01T07:34:23.593Z,0.37
2022-12-01T07:36:51.550Z,0.40
2022-12-01T07:39:19.626Z,0.49
2022-12-01T07:41:47.611Z,0.62
2022-12-01T07:44:15.692Z,0.73
2022-12-01T07:46:43.698Z,0.86
2022-12-01T07:49:15.000Z,0.99
2022-12-01T07:51:42.981Z,1.06
2022-12-01T07:54:14.311Z,1.10
2022-12-01T07:56:42.478Z,1.13
2022-12-01T07:59:12.056Z,1.24
2022-12-01T08:01:44.243Z,1.31
2022-12-01T08:04:12.774Z,1.34
2022-12-01T08:06:40.765Z,1.30
2022-12-01T08:09:08.652Z,1.25
2022-12-01T08:11:36.781Z,1.25
2022-12-01T08:14:04.973Z,1.25
2022-12-01T08:16:32.970Z,1.24
2022-12-01T08:19:01.764Z,1.26
2022-12-01T08:21:29.673Z,1.33
2022-12-01T08:23:58.565Z,1.42
2022-12-01T08:26:27.729Z,1.49
2022-12-01T08:28:55.942Z,1.54
2022-12-01T08:31:29.874Z,1.66
2022-12-01T08:33:58.197Z,1.82
2022-12-01T08:36:26.381Z,1.90
2022-12-01T08:38:55.966Z,1.97
2022-12-01T08:41:25.229Z,2.05
2022-12-01T08:43:58.262Z,2.09
2022-12-01T08:46:29.251Z,2.15
2022-12-01T08:48:57.532Z,2.16
2022-12-01T08:51:26.975Z,2.18
2022-12-01T08:53:56.464Z,2.25
2022-12-01T08:56:37.200Z,2.37
2022-12-01T08:59:05.510Z,2.46
2022-12-01T09:01:34.076Z,2.50
2022-12-01T09:04:06.322Z,2.56
2022-12-01T09:06:40.633Z,2.67
2022-12-01T09:09:14.602Z,2.81
2022-12-01T09:11:46.063Z,2.92
2022-12-01T09:14:15.553Z,2.95
2022-12-01T09:16:45.469Z,2.96
2022-12-01T09:19:19.203Z,2.94
2022-12-01T09:21:51.682Z,2.96
2022-12-01T09:24:19.694Z,3.00
2022-12-01T09:26:47.633Z,3.12
2022-12-01T09:29:16.903Z,3.29
2022-12-01T09:31:45.078Z,3.46
2022-12-01T09:34:19.231Z,3.57
2022-12-01T09:36:47.965Z,3.67
2022-12-01T09:39:20.907Z,3.77
2022-12-01T09:42:06.155Z,3.89
2022-12-01T09:44:49.160Z,4.03
2022-12-01T09:47:22.353Z,4.18
2022-12-01T09:50:07.819Z,4.31
2022-12-01T09:52:44.820Z,4.48
2022-12-01T09:55:15.364Z,4.62
2022-12-01T09:57:46.954Z,4.76
2022-12-01T10:00:18.550Z,4.87
2022-12-01T10:02:55.858Z,4.95
2022-12-01T10:05:29.587Z,5.03
2022-12-01T10:08:04.897Z,5.13
2022-12-01T10:11:04.435Z,5.24
2022-12-01T10:13:33.414Z,5.29
2022-12-01T10:16:12.892Z,5.34
2022-12-01T10:18:54.479Z,5.41
2022-12-01T10:21:28.412Z,5.52
2022-12-01T10:24:30.490Z,5.65
2022-12-01T10:27:08.653Z,5.77
2022-12-01T10:29:48.057Z,5.89
2022-12-01T10:32:23.857Z,5.94
2022-12-01T10:34:52.025Z,6.01
2022-12-01T10:37:29.149Z,6.05
2022-12-01T10:39:58.616Z,6.19
2022-12-01T10:42:29.513Z,6.32
2022-12-01T10:45:01.966Z,6.47
2022-12-01T10:47:31.604Z,6.63
2022-12-01T10:49:59.594Z,6.60
2022-12-01T10:52:36.765Z,6.51
2022-12-01T10:55:26.974Z,6.49
2022-12-01T10:57:57.857Z,6.58
2022-12-01T11:03:30.384Z,6.61
2022-12-01T11:06:01.923Z,6.68
2022-12-01T11:08:53.896Z,6.71
2022-12-01T11:11:33.016Z,6.71
2022-12-01T11:14:06.155Z,6.76
2022-12-01T11:16:35.792Z,6.78
2022-12-01T11:19:14.480Z,6.81
2022-12-01T11:21:51.368Z,6.83
2022-12-01T11:24:28.054Z,6.86
2022-12-01T11:26:58.655Z,6.92
2022-12-01T11:29:32.167Z,6.96
2022-12-01T11:32:01.801Z,6.96
2022-12-01T11:34:34.574Z,7.00
2022-12-01T11:37:07.875Z,7.12
2022-12-01T11:39:41.777Z,7.23
2022-12-01T11:42:31.330Z,7.31
2022-12-01T11:45:21.229Z,7.37
2022-12-01T11:48:06.474Z,7.50
2022-12-01T11:50:37.871Z,7.69
2022-12-01T11:53:33.691Z,7.89
2022-12-01T11:56:23.633Z,8.03
2022-12-01T11:59:10.607Z,8.13
2022-12-01T12:02:20.737Z,8.24
2022-12-01T12:05:04.263Z,8.37
2022-12-01T12:07:48.517Z,8.39
2022-12-01T12:10:56.937Z,8.42
2022-12-01T12:14:10.117Z,8.53
2022-12-01T12:16:44.383Z,8.56
2022-12-01T12:19:18.603Z,8.54
2022-12-01T12:22:18.198Z,8.47
2022-12-01T12:25:27.951Z,8.36
2022-12-01T12:28:18.194Z,8.25
2022-12-01T12:31:24.640Z,8.04
2022-12-01T12:34:15.178Z,7.93
2022-12-01T12:37:07.873Z,7.84
2022-12-01T12:40:07.271Z,7.75
2022-12-01T12:42:53.540Z,7.62
2022-12-01T12:45:32.499Z,7.44
2022-12-01T12:48:21.785Z,7.29
2022-12-01T12:51:13.564Z,7.16
2022-12-01T12:54:11.905Z,7.07
2022-12-01T12:56:46.308Z,6.93
2022-12-01T12:59:33.817Z,6.78
2022-12-01T13:02:15.981Z,6.72
2022-12-01T13:05:10.433Z,6.66
2022-12-01T13:07:46.461Z,6.52
2022-12-01T13:10:41.143Z,6.44
2022-12-01T13:13:32.286Z,6.34
2022-12-01T13:16:03.058Z,6.19
2022-12-01T13:18:49.826Z,6.04
2022-12-01T13:21:21.408Z,5.92
2022-12-01T13:23:52.324Z,5.78
2022-12-01T13:26:21.727Z,5.66
2022-12-01T13:28:56.258Z,5.54
2022-12-01T13:31:24.528Z,5.35
2022-12-01T13:34:01.919Z,5.23
2022-12-01T13:36:46.763Z,5.13
2022-12-01T13:39:24.682Z,5.03
2022-12-01T13:42:20.542Z,4.93
2022-12-01T13:44:57.288Z,4.82
2022-12-01T13:47:57.687Z,4.73
2022-12-01T13:50:43.207Z,4.69
2022-12-01T13:53:25.255Z,4.66
2022-12-01T13:56:23.584Z,4.62
2022-12-01T13:58:54.310Z,4.59
2022-12-01T14:01:22.912Z,4.57
2022-12-01T14:04:03.766Z,4.56
2022-12-01T14:06:53.146Z,4.58
2022-12-01T14:09:31.848Z,4.60
2022-12-01T14:12:06.682Z,4.58
2022-12-01T14:14:42.113Z,4.52
2022-12-01T14:17:25.000Z,4.43
2022-12-01T14:19:54.143Z,4.32
2022-12-01T14:22:34.285Z,4.23
2022-12-01T14:25:07.746Z,4.19
2022-12-01T14:27:43.898Z,4.16
2022-12-01T14:30:41.390Z,4.14
2022-12-01T14:33:37.408Z,4.11
2022-12-01T14:44:36.522Z,3.99
2022-12-01T14:47:04.744Z,3.95
2022-12-01T14:50:15.047Z,3.92
2022-12-01T14:53:04.003Z,3.88
2022-12-01T14:55:40.238Z,3.87
2022-12-01T14:58:16.973Z,3.85
2022-12-01T15:01:14.355Z,3.81
2022-12-01T15:03:49.121Z,3.70
2022-12-01T15:06:28.772Z,3.59
2022-12-01T15:09:31.990Z,3.48
2022-12-01T15:12:02.294Z,3.41
2022-12-01T15:14:34.782Z,3.38
2022-12-01T15:17:05.426Z,3.36
2022-12-01T15:19:38.588Z,3.34
2022-12-01T15:22:14.043Z,3.32
2022-12-01T15:24:43.077Z,3.31
2022-12-01T15:27:31.282Z,3.31
2022-12-01T15:30:04.840Z,3.29
2022-12-01T15:32:39.449Z,3.24
2022-12-01T15:35:20.133Z,3.21
2022-12-01T15:37:49.254Z,3.19
2022-12-01T15:43:17.761Z,3.11
2022-12-01T15:45:55.440Z,3.08
2022-12-01T15:48:35.429Z,3.06
2022-12-01T15:51:18.678Z,3.03
2022-12-01T15:53:59.180Z,3.00
2022-12-01T15:56:30.939Z,2.98
2022-12-01T15:59:14.151Z,2.98
2022-12-01T16:01:44.292Z,3.01
2022-12-01T16:04:25.223Z,3.04
2022-12-01T16:07:05.055Z,3.06
2022-12-01T16:09:37.195Z,3.11
2022-12-01T16:12:21.999Z,3.15
2022-12-01T16:15:08.543Z,3.21
2022-12-01T16:17:48.746Z,3.28
2022-12-01T16:20:17.619Z,3.33
2022-12-01T16:22:47.896Z,3.40
2022-12-01T16:25:31.523Z,3.46
2022-12-01T16:28:00.665Z,3.51
2022-12-01T16:30:38.524Z,3.57
2022-12-01T16:33:17.930Z,3.64
2022-12-01T16:35:45.988Z,3.71
2022-12-01T16:38:20.368Z,3.77
2022-12-01T16:41:00.388Z,3.83
2022-12-01T16:43:29.737Z,3.88
2022-12-01T16:46:00.524Z,3.90
2022-12-01T16:48:28.885Z,3.92
2022-12-01T16:50:57.479Z,3.91
2022-12-01T16:53:25.393Z,3.86
2022-12-01T16:55:56.054Z,3.86
2022-12-01T16:58:24.541Z,3.86
2022-12-01T17:00:53.405Z,3.80
2022-12-01T17:03:24.134Z,3.75
2022-12-01T17:05:52.961Z,3.72
2022-12-01T17:08:21.762Z,3.70
2022-12-01T17:10:51.171Z,3.67
2022-12-01T17:13:24.507Z,3.63
2022-12-01T17:15:54.849Z,3.59
2022-12-01T17:18:24.106Z,3.56
2022-12-01T17:21:04.308Z,3.52
2022-12-01T17:23:33.494Z,3.48
2022-12-01T17:26:01.533Z,3.43
2022-12-01T17:28:29.424Z,3.35
2022-12-01T17:31:00.837Z,3.31
2022-12-01T17:33:29.705Z,3.28
2022-12-01T17:36:03.370Z,3.26
2022-12-01T17:38:33.913Z,3.25
2022-12-01T17:41:05.321Z,3.25
2022-12-01T17:43:35.325Z,3.25
2022-12-01T17:46:05.828Z,3.23
2022-12-01T17:48:42.402Z,3.20
2022-12-01T17:51:11.502Z,3.17
2022-12-01T17:53:40.384Z,3.15
2022-12-01T17:56:10.398Z,3.13
2022-12-01T17:58:38.842Z,3.10
2022-12-01T18:01:14.506Z,3.07
2022-12-01T18:03:42.812Z,3.01
2022-12-01T18:06:13.021Z,2.97
2022-12-01T18:08:41.942Z,2.93
2022-12-01T18:11:12.874Z,2.90
2022-12-01T18:13:43.970Z,2.88
2022-12-01T18:16:18.886Z,2.85
2022-12-01T18:18:46.895Z,2.83
2022-12-01T18:21:17.718Z,2.81
2022-12-01T18:23:50.938Z,2.79
2022-12-01T18:26:21.949Z,2.77
2022-12-01T18:28:57.501Z,2.75
2022-12-01T18:31:25.757Z,2.74
2022-12-01T18:33:54.295Z,2.73
2022-12-01T18:36:24.362Z,2.73
2022-12-01T18:38:54.622Z,2.72
2022-12-01T18:41:22.611Z,2.73
2022-12-01T18:43:51.467Z,2.73
2022-12-01T18:46:21.013Z,2.71
2022-12-01T18:48:51.678Z,2.70
2022-12-01T18:51:21.172Z,2.70
2022-12-01T18:53:54.412Z,2.70
2022-12-01T18:56:22.514Z,2.70
2022-12-01T18:59:11.155Z,2.70
2022-12-01T19:01:43.825Z,2.69
2022-12-01T19:04:12.408Z,2.69
2022-12-01T19:06:42.682Z,2.73
2022-12-01T19:09:12.638Z,2.79
2022-12-01T19:11:41.643Z,2.82
2022-12-01T19:14:18.823Z,2.86
2022-12-01T19:16:47.407Z,2.90
2022-12-01T19:19:16.265Z,2.96
2022-12-01T19:21:45.321Z,3.02
2022-12-01T19:24:13.500Z,3.09
2022-12-01T19:26:41.506Z,3.16
2022-12-01T19:29:09.508Z,3.21
2022-12-01T19:31:37.687Z,3.25
2022-12-01T19:34:05.740Z,3.32
2022-12-01T19:36:33.671Z,3.35
2022-12-01T19:39:04.458Z,3.37
2022-12-01T19:41:38.760Z,3.41
2022-12-01T19:44:07.358Z,3.46
2022-12-01T19:46:35.332Z,3.50
2022-12-01T19:49:04.213Z,3.50
2022-12-01T19:51:37.506Z,3.46
2022-12-01T19:54:08.561Z,3.44
2022-12-01T19:56:36.465Z,3.44
2022-12-01T19:59:07.039Z,3.42
2022-12-01T20:01:35.088Z,3.38
2022-12-01T20:04:04.120Z,3.33
2022-12-01T20:06:34.092Z,3.29
2022-12-01T20:09:04.491Z,3.27
2022-12-01T20:11:35.537Z,3.21
2022-12-01T20:14:07.551Z,3.14
2022-12-01T20:16:35.682Z,3.06
2022-12-01T20:19:05.202Z,2.98
2022-12-01T20:21:35.463Z,2.91
2022-12-01T20:24:06.617Z,2.85
2022-12-01T20:26:39.385Z,2.81
2022-12-01T20:29:13.227Z,2.78
2022-12-01T20:31:42.337Z,2.75
2022-12-01T20:34:16.717Z,2.74
2022-12-01T20:36:44.876Z,2.72
2022-12-01T20:39:14.028Z,2.71
2022-12-01T20:41:43.151Z,2.70
2022-12-01T20:44:12.378Z,2.69
2022-12-01T20:46:45.331Z,2.69
2022-12-01T20:49:15.443Z,2.69
2022-12-01T20:51:43.328Z,2.70
2022-12-01T20:54:30.239Z,2.69
2022-12-01T20:56:59.149Z,2.68
2022-12-01T20:59:27.833Z,2.66
2022-12-01T21:01:55.918Z,2.65
2022-12-01T21:04:23.917Z,2.65
2022-12-01T21:06:56.041Z,2.63
2022-12-01T21:09:24.523Z,2.61
2022-12-01T21:12:11.568Z,2.60
2022-12-01T21:14:42.595Z,2.57
2022-12-01T21:17:33.200Z,2.52
2022-12-01T21:20:39.372Z,2.50
2022-12-01T21:23:14.558Z,2.50
2022-12-01T21:25:43.816Z,2.50
2022-12-01T21:28:25.929Z,2.50
2022-12-01T21:31:07.893Z,2.50
2022-12-01T21:33:37.278Z,2.50
2022-12-01T21:36:28.902Z,2.50
2022-12-01T21:39:09.774Z,2.52
2022-12-01T21:41:38.044Z,2.51
2022-12-01T21:44:21.231Z,2.51
2022-12-01T21:46:56.062Z,2.51
2022-12-01T21:49:35.636Z,2.53
2022-12-01T21:52:12.162Z,2.55
2022-12-01T21:54:40.237Z,2.58
2022-12-01T21:57:26.447Z,2.59
2022-12-01T21:59:58.823Z,2.62
2022-12-01T22:02:49.620Z,2.65
2022-12-01T22:05:31.521Z,2.70
2022-12-01T22:08:23.253Z,2.75
2022-12-01T22:11:13.090Z,2.79
2022-12-01T22:13:45.360Z,2.81
2022-12-01T22:16:25.993Z,2.82
2022-12-01T22:18:56.661Z,2.82
2022-12-01T22:21:30.474Z,2.84
2022-12-01T22:24:10.586Z,2.86
2022-12-01T22:26:46.287Z,2.86
2022-12-01T22:29:31.201Z,2.92
2022-12-01T22:32:48.568Z,2.98
2022-12-01T22:35:55.209Z,3.01
2022-12-01T22:38:25.855Z,3.08
2022-12-01T22:41:19.970Z,3.17
2022-12-01T22:44:01.907Z,3.25
2022-12-01T22:46:36.083Z,3.32
2022-12-01T22:49:10.199Z,3.37
2022-12-01T22:52:14.208Z,3.38
2022-12-01T22:54:49.231Z,3.38
2022-12-01T22:57:33.457Z,3.37
2022-12-01T23:00:14.141Z,3.37
2022-12-01T23:02:42.213Z,3.35
2022-12-01T23:05:23.044Z,3.32
2022-12-01T23:07:52.177Z,3.27
2022-12-01T23:10:22.280Z,3.18
2022-12-01T23:12:53.131Z,3.12
2022-12-01T23:15:27.353Z,3.08
2022-12-01T23:17:55.479Z,3.02
2022-12-01T23:20:33.109Z,2.99
2022-12-01T23:23:04.792Z,2.94
2022-12-01T23:25:34.632Z,2.92
2022-12-01T23:28:08.294Z,2.90
2022-12-01T23:30:39.121Z,2.89
2022-12-01T23:33:15.426Z,2.90
2022-12-01T23:35:57.625Z,2.90
2022-12-01T23:38:37.552Z,2.91
2022-12-01T23:41:10.890Z,2.93
2022-12-01T23:43:42.439Z,2.93
2022-12-01T23:46:16.816Z,2.93
2022-12-01T23:48:56.501Z,2.94
2022-12-01T23:51:29.944Z,2.95
2022-12-01T23:54:00.870Z,2.96
2022-12-01T23:56:31.688Z,2.97
2022-12-01T23:59:01.239Z,2.97
